sensor_id;sensor_type;location;lat;lon;timestamp;pressure;altitude;pressure_sealevel;temperature;humidity
57572;BME280;44459;43.522;24.470;2023-08-07T00:00:05;99418.22;;;18.60;100.00
57572;BME280;44459;43.522;24.470;2023-08-07T00:02:31;99412.16;;;18.55;100.00
57572;BME280;44459;43.522;24.470;2023-08-07T00:04:56;99410.75;;;18.45;100.00
57572;BME280;44459;43.522;24.470;2023-08-07T00:07:22;99431.09;;;18.49;100.00
57572;BME280;44459;43.522;24.470;2023-08-07T00:09:50;99425.72;;;18.49;100.00
57572;BME280;44459;43.522;24.470;2023-08-07T00:12:15;99418.06;;;18.40;100.00
57572;BME280;44459;43.522;24.470;2023-08-07T00:14:40;99428.44;;;18.47;100.00
57572;BME280;44459;43.522;24.470;2023-08-07T00:17:06;99422.34;;;18.44;99.95
57572;BME280;44459;43.522;24.470;2023-08-07T00:19:31;99435.78;;;18.42;100.00
57572;BME280;44459;43.522;24.470;2023-08-07T00:21:57;99441.16;;;18.42;99.78
57572;BME280;44459;43.522;24.470;2023-08-07T00:24:22;99444.56;;;18.46;98.71
57572;BME280;44459;43.522;24.470;2023-08-07T00:26:48;99434.00;;;18.43;99.30
57572;BME280;44459;43.522;24.470;2023-08-07T00:29:13;99448.31;;;18.40;99.70
57572;BME280;44459;43.522;24.470;2023-08-07T00:31:38;99444.78;;;18.40;99.25
57572;BME280;44459;43.522;24.470;2023-08-07T00:34:04;99444.75;;;18.41;100.00
57572;BME280;44459;43.522;24.470;2023-08-07T00:36:29;99455.72;;;18.34;100.00
57572;BME280;44459;43.522;24.470;2023-08-07T00:38:56;99457.38;;;18.36;100.00
57572;BME280;44459;43.522;24.470;2023-08-07T00:41:22;99454.66;;;18.38;100.00
57572;BME280;44459;43.522;24.470;2023-08-07T00:43:47;99460.13;;;18.35;100.00
57572;BME280;44459;43.522;24.470;2023-08-07T00:46:12;99441.06;;;18.21;100.00
57572;BME280;44459;43.522;24.470;2023-08-07T00:48:38;99452.41;;;18.27;100.00
57572;BME280;44459;43.522;24.470;2023-08-07T00:51:04;99449.06;;;18.22;100.00
57572;BME280;44459;43.522;24.470;2023-08-07T00:53:33;99449.13;;;18.19;100.00
57572;BME280;44459;43.522;24.470;2023-08-07T00:55:59;99448.38;;;18.16;100.00
57572;BME280;44459;43.522;24.470;2023-08-07T00:58:25;99446.66;;;18.15;100.00
57572;BME280;44459;43.522;24.470;2023-08-07T01:00:51;99453.06;;;18.09;100.00
57572;BME280;44459;43.522;24.470;2023-08-07T01:03:16;99452.28;;;18.07;100.00
57572;BME280;44459;43.522;24.470;2023-08-07T01:05:41;99465.78;;;18.02;100.00
57572;BME280;44459;43.522;24.470;2023-08-07T01:08:07;99469.22;;;18.06;100.00
57572;BME280;44459;43.522;24.470;2023-08-07T01:10:58;99465.88;;;18.01;100.00
57572;BME280;44459;43.522;24.470;2023-08-07T01:13:35;99472.06;;;18.01;100.00
57572;BME280;44459;43.522;24.470;2023-08-07T01:16:21;99463.28;;;17.98;100.00
57572;BME280;44459;43.522;24.470;2023-08-07T01:18:48;99469.88;;;17.88;100.00
57572;BME280;44459;43.522;24.470;2023-08-07T01:21:21;99481.31;;;17.91;100.00
57572;BME280;44459;43.522;24.470;2023-08-07T01:23:47;99491.25;;;17.88;100.00
57572;BME280;44459;43.522;24.470;2023-08-07T01:26:14;99488.50;;;17.91;100.00
57572;BME280;44459;43.522;24.470;2023-08-07T01:28:45;99488.66;;;17.86;100.00
57572;BME280;44459;43.522;24.470;2023-08-07T01:31:14;99487.00;;;17.82;100.00
57572;BME280;44459;43.522;24.470;2023-08-07T01:34:07;99486.88;;;17.85;100.00
57572;BME280;44459;43.522;24.470;2023-08-07T01:36:38;99490.66;;;17.80;100.00
57572;BME280;44459;43.522;24.470;2023-08-07T01:39:04;99495.16;;;17.78;100.00
57572;BME280;44459;43.522;24.470;2023-08-07T01:41:32;99494.28;;;17.77;100.00
57572;BME280;44459;43.522;24.470;2023-08-07T01:43:58;99502.16;;;17.82;100.00
57572;BME280;44459;43.522;24.470;2023-08-07T01:46:24;99504.97;;;17.77;100.00
57572;BME280;44459;43.522;24.470;2023-08-07T01:48:50;99510.13;;;17.83;100.00
57572;BME280;44459;43.522;24.470;2023-08-07T01:51:15;99497.94;;;17.75;100.00
57572;BME280;44459;43.522;24.470;2023-08-07T01:53:41;99505.72;;;17.81;100.00
57572;BME280;44459;43.522;24.470;2023-08-07T01:56:06;99486.50;;;17.71;100.00
57572;BME280;44459;43.522;24.470;2023-08-07T01:58:32;99507.59;;;17.79;100.00
57572;BME280;44459;43.522;24.470;2023-08-07T02:00:57;99513.56;;;17.87;100.00
57572;BME280;44459;43.522;24.470;2023-08-07T02:03:22;99510.91;;;17.85;100.00
57572;BME280;44459;43.522;24.470;2023-08-07T02:05:48;99503.03;;;17.82;100.00
57572;BME280;44459;43.522;24.470;2023-08-07T02:08:14;99507.72;;;17.76;99.93
57572;BME280;44459;43.522;24.470;2023-08-07T02:10:39;99504.28;;;17.72;100.00
57572;BME280;44459;43.522;24.470;2023-08-07T02:13:04;99509.59;;;17.72;100.00
57572;BME280;44459;43.522;24.470;2023-08-07T02:15:30;99514.69;;;17.80;99.80
57572;BME280;44459;43.522;24.470;2023-08-07T02:17:55;99509.59;;;17.72;100.00
57572;BME280;44459;43.522;24.470;2023-08-07T02:20:21;99515.06;;;17.69;100.00
57572;BME280;44459;43.522;24.470;2023-08-07T02:22:46;99510.63;;;17.68;100.00
57572;BME280;44459;43.522;24.470;2023-08-07T02:25:12;99519.53;;;17.69;100.00
57572;BME280;44459;43.522;24.470;2023-08-07T02:27:38;99515.97;;;17.68;99.81
57572;BME280;44459;43.522;24.470;2023-08-07T02:30:03;99524.84;;;17.69;100.00
57572;BME280;44459;43.522;24.470;2023-08-07T02:32:30;99526.00;;;17.62;99.46
57572;BME280;44459;43.522;24.470;2023-08-07T02:34:56;99530.41;;;17.63;98.78
57572;BME280;44459;43.522;24.470;2023-08-07T02:37:21;99524.34;;;17.57;99.36
57572;BME280;44459;43.522;24.470;2023-08-07T02:39:47;99531.44;;;17.58;99.77
57572;BME280;44459;43.522;24.470;2023-08-07T02:42:13;99550.81;;;17.64;98.51
57572;BME280;44459;43.522;24.470;2023-08-07T02:44:39;99549.28;;;17.56;99.32
57572;BME280;44459;43.522;24.470;2023-08-07T02:47:04;99548.47;;;17.53;99.13
57572;BME280;44459;43.522;24.470;2023-08-07T02:49:30;99563.53;;;17.55;98.93
57572;BME280;44459;43.522;24.470;2023-08-07T02:51:55;99560.97;;;17.52;99.67
57572;BME280;44459;43.522;24.470;2023-08-07T02:54:21;99563.56;;;17.54;99.30
57572;BME280;44459;43.522;24.470;2023-08-07T02:56:46;99557.59;;;17.46;99.43
57572;BME280;44459;43.522;24.470;2023-08-07T02:59:14;99557.59;;;17.46;100.00
57572;BME280;44459;43.522;24.470;2023-08-07T03:01:39;99566.56;;;17.45;99.40
57572;BME280;44459;43.522;24.470;2023-08-07T03:04:04;99571.03;;;17.43;99.65
57572;BME280;44459;43.522;24.470;2023-08-07T03:06:30;99576.47;;;17.40;99.89
57572;BME280;44459;43.522;24.470;2023-08-07T03:08:55;99581.13;;;17.35;100.00
57572;BME280;44459;43.522;24.470;2023-08-07T03:11:21;99583.91;;;17.30;100.00
57572;BME280;44459;43.522;24.470;2023-08-07T03:13:46;99591.09;;;17.28;100.00
57572;BME280;44459;43.522;24.470;2023-08-07T03:16:12;99595.66;;;17.25;100.00
57572;BME280;44459;43.522;24.470;2023-08-07T03:18:37;99589.47;;;17.23;100.00
57572;BME280;44459;43.522;24.470;2023-08-07T03:21:03;99583.38;;;17.19;100.00
57572;BME280;44459;43.522;24.470;2023-08-07T03:23:28;99583.34;;;17.21;100.00
57572;BME280;44459;43.522;24.470;2023-08-07T03:28:29;99583.53;;;17.15;100.00
57572;BME280;44459;43.522;24.470;2023-08-07T03:30:55;99584.47;;;17.12;100.00
57572;BME280;44459;43.522;24.470;2023-08-07T03:33:20;99588.03;;;17.13;100.00
57572;BME280;44459;43.522;24.470;2023-08-07T03:35:46;99590.69;;;17.13;100.00
57572;BME280;44459;43.522;24.470;2023-08-07T03:38:11;99584.53;;;17.10;100.00
57572;BME280;44459;43.522;24.470;2023-08-07T03:40:37;99578.34;;;17.10;100.00
57572;BME280;44459;43.522;24.470;2023-08-07T03:43:02;99577.66;;;17.03;100.00
57572;BME280;44459;43.522;24.470;2023-08-07T03:45:27;99572.16;;;17.08;100.00
57572;BME280;44459;43.522;24.470;2023-08-07T03:47:53;99582.81;;;17.08;100.00
57572;BME280;44459;43.522;24.470;2023-08-07T03:50:18;99581.78;;;17.14;100.00
57572;BME280;44459;43.522;24.470;2023-08-07T03:52:44;99585.25;;;17.16;100.00
57572;BME280;44459;43.522;24.470;2023-08-07T03:55:09;99585.06;;;17.22;100.00
57572;BME280;44459;43.522;24.470;2023-08-07T03:57:35;99581.28;;;17.29;100.00
57572;BME280;44459;43.522;24.470;2023-08-07T04:00:00;99589.25;;;17.30;98.78
57572;BME280;44459;43.522;24.470;2023-08-07T04:02:25;99589.94;;;17.37;98.57
57572;BME280;44459;43.522;24.470;2023-08-07T04:04:51;99583.63;;;17.39;98.21
57572;BME280;44459;43.522;24.470;2023-08-07T04:07:16;99584.38;;;17.43;97.31
57572;BME280;44459;43.522;24.470;2023-08-07T04:09:42;99569.94;;;17.50;97.07
57572;BME280;44459;43.522;24.470;2023-08-07T04:12:07;99585.78;;;17.56;97.35
57572;BME280;44459;43.522;24.470;2023-08-07T04:14:33;99589.28;;;17.58;96.89
57572;BME280;44459;43.522;24.470;2023-08-07T04:16:58;99579.47;;;17.58;96.54
57572;BME280;44459;43.522;24.470;2023-08-07T04:19:25;99588.97;;;17.67;96.13
57572;BME280;44459;43.522;24.470;2023-08-07T04:21:51;99585.38;;;17.68;94.63
57572;BME280;44459;43.522;24.470;2023-08-07T04:24:16;99583.34;;;17.76;94.17
57572;BME280;44459;43.522;24.470;2023-08-07T04:26:41;99583.78;;;17.89;94.44
57572;BME280;44459;43.522;24.470;2023-08-07T04:29:07;99592.53;;;17.94;93.27
57572;BME280;44459;43.522;24.470;2023-08-07T04:31:32;99600.09;;;18.06;93.62
57572;BME280;44459;43.522;24.470;2023-08-07T04:33:58;99595.69;;;18.05;91.83
57572;BME280;44459;43.522;24.470;2023-08-07T04:36:23;99605.31;;;18.10;91.15
57572;BME280;44459;43.522;24.470;2023-08-07T04:38:50;99606.69;;;18.22;91.66
57572;BME280;44459;43.522;24.470;2023-08-07T04:41:17;99592.22;;;18.28;91.13
57572;BME280;44459;43.522;24.470;2023-08-07T04:43:43;99593.78;;;18.33;89.97
57572;BME280;44459;43.522;24.470;2023-08-07T04:46:09;99598.81;;;18.42;90.24
57572;BME280;44459;43.522;24.470;2023-08-07T04:48:37;99599.31;;;18.53;87.70
57572;BME280;44459;43.522;24.470;2023-08-07T04:51:03;99602.59;;;18.62;87.93
57572;BME280;44459;43.522;24.470;2023-08-07T04:53:28;99595.09;;;18.71;88.89
57572;BME280;44459;43.522;24.470;2023-08-07T04:55:54;99597.38;;;18.82;88.47
57572;BME280;44459;43.522;24.470;2023-08-07T04:58:19;99592.91;;;18.82;87.35
57572;BME280;44459;43.522;24.470;2023-08-07T05:00:45;99595.41;;;18.87;85.99
57572;BME280;44459;43.522;24.470;2023-08-07T05:03:10;99591.59;;;18.94;85.94
57572;BME280;44459;43.522;24.470;2023-08-07T05:05:36;99602.00;;;19.01;86.55
57572;BME280;44459;43.522;24.470;2023-08-07T05:08:01;99593.13;;;18.99;82.35
57572;BME280;44459;43.522;24.470;2023-08-07T05:10:27;99607.09;;;19.07;82.68
57572;BME280;44459;43.522;24.470;2023-08-07T05:12:52;99606.53;;;19.23;82.65
57572;BME280;44459;43.522;24.470;2023-08-07T05:15:22;99611.53;;;19.30;81.33
57572;BME280;44459;43.522;24.470;2023-08-07T05:17:47;99625.47;;;19.40;79.63
57572;BME280;44459;43.522;24.470;2023-08-07T05:20:13;99629.56;;;19.50;77.97
57572;BME280;44459;43.522;24.470;2023-08-07T05:22:38;99624.75;;;19.58;78.11
57572;BME280;44459;43.522;24.470;2023-08-07T05:25:04;99622.88;;;19.60;75.25
57572;BME280;44459;43.522;24.470;2023-08-07T05:27:29;99633.34;;;19.66;75.48
57572;BME280;44459;43.522;24.470;2023-08-07T05:29:55;99630.47;;;19.92;76.78
57572;BME280;44459;43.522;24.470;2023-08-07T05:32:20;99621.00;;;20.05;77.85
57572;BME280;44459;43.522;24.470;2023-08-07T05:34:46;99627.34;;;20.03;76.33
57572;BME280;44459;43.522;24.470;2023-08-07T05:37:11;99630.72;;;20.08;73.31
57572;BME280;44459;43.522;24.470;2023-08-07T05:39:37;99640.06;;;20.20;73.56
57572;BME280;44459;43.522;24.470;2023-08-07T05:42:02;99631.31;;;20.36;72.96
57572;BME280;44459;43.522;24.470;2023-08-07T05:44:28;99646.94;;;20.47;71.88
57572;BME280;44459;43.522;24.470;2023-08-07T05:46:54;99641.34;;;20.51;71.13
57572;BME280;44459;43.522;24.470;2023-08-07T05:49:19;99654.03;;;20.68;70.71
57572;BME280;44459;43.522;24.470;2023-08-07T05:51:46;99646.03;;;20.67;70.72
57572;BME280;44459;43.522;24.470;2023-08-07T05:54:11;99650.78;;;20.80;70.26
57572;BME280;44459;43.522;24.470;2023-08-07T05:56:37;99646.44;;;20.78;68.83
57572;BME280;44459;43.522;24.470;2023-08-07T05:59:03;99632.59;;;20.87;69.90
57572;BME280;44459;43.522;24.470;2023-08-07T06:01:29;99652.66;;;20.98;67.96
57572;BME280;44459;43.522;24.470;2023-08-07T06:03:57;99642.91;;;21.16;66.84
57572;BME280;44459;43.522;24.470;2023-08-07T06:06:22;99649.22;;;21.15;67.25
57572;BME280;44459;43.522;24.470;2023-08-07T06:08:48;99637.19;;;21.24;67.97
57572;BME280;44459;43.522;24.470;2023-08-07T06:11:13;99641.69;;;21.42;67.89
57572;BME280;44459;43.522;24.470;2023-08-07T06:13:40;99637.59;;;21.52;68.08
57572;BME280;44459;43.522;24.470;2023-08-07T06:16:05;99641.25;;;21.51;65.44
57572;BME280;44459;43.522;24.470;2023-08-07T06:18:31;99640.19;;;21.55;65.16
57572;BME280;44459;43.522;24.470;2023-08-07T06:20:57;99632.59;;;21.63;68.62
57572;BME280;44459;43.522;24.470;2023-08-07T06:23:22;99637.13;;;21.80;64.18
57572;BME280;44459;43.522;24.470;2023-08-07T06:25:48;99641.94;;;21.73;63.99
57572;BME280;44459;43.522;24.470;2023-08-07T06:28:13;99641.47;;;21.65;63.28
57572;BME280;44459;43.522;24.470;2023-08-07T06:30:39;99629.75;;;21.66;64.30
57572;BME280;44459;43.522;24.470;2023-08-07T06:33:04;99633.50;;;21.81;64.22
57572;BME280;44459;43.522;24.470;2023-08-07T06:35:29;99639.75;;;21.81;62.00
57572;BME280;44459;43.522;24.470;2023-08-07T06:37:55;99655.91;;;22.00;63.71
57572;BME280;44459;43.522;24.470;2023-08-07T06:40:20;99642.75;;;22.11;62.53
57572;BME280;44459;43.522;24.470;2023-08-07T06:42:46;99653.53;;;22.11;62.47
57572;BME280;44459;43.522;24.470;2023-08-07T06:45:11;99661.84;;;22.06;61.04
57572;BME280;44459;43.522;24.470;2023-08-07T06:47:37;99646.03;;;22.00;62.62
57572;BME280;44459;43.522;24.470;2023-08-07T06:50:02;99647.59;;;22.04;61.18
57572;BME280;44459;43.522;24.470;2023-08-07T06:52:28;99646.88;;;22.01;62.46
57572;BME280;44459;43.522;24.470;2023-08-07T06:54:53;99655.03;;;22.17;62.20
57572;BME280;44459;43.522;24.470;2023-08-07T06:57:19;99659.16;;;22.24;61.74
57572;BME280;44459;43.522;24.470;2023-08-07T06:59:44;99660.50;;;22.32;62.30
57572;BME280;44459;43.522;24.470;2023-08-07T07:02:10;99662.19;;;22.35;60.74
57572;BME280;44459;43.522;24.470;2023-08-07T07:04:35;99665.03;;;22.49;60.78
57572;BME280;44459;43.522;24.470;2023-08-07T07:07:02;99665.69;;;22.71;62.04
57572;BME280;44459;43.522;24.470;2023-08-07T07:09:27;99672.38;;;22.97;61.91
57572;BME280;44459;43.522;24.470;2023-08-07T07:11:54;99666.31;;;22.93;58.75
57572;BME280;44459;43.522;24.470;2023-08-07T07:14:20;99671.41;;;22.98;60.26
57572;BME280;44459;43.522;24.470;2023-08-07T07:16:46;99677.03;;;23.11;59.00
57572;BME280;44459;43.522;24.470;2023-08-07T07:19:12;99688.94;;;23.22;59.81
57572;BME280;44459;43.522;24.470;2023-08-07T07:21:37;99684.97;;;23.29;57.72
57572;BME280;44459;43.522;24.470;2023-08-07T07:24:03;99689.59;;;23.27;57.28
57572;BME280;44459;43.522;24.470;2023-08-07T07:26:28;99688.38;;;23.33;58.43
57572;BME280;44459;43.522;24.470;2023-08-07T07:28:54;99691.31;;;23.45;56.49
57572;BME280;44459;43.522;24.470;2023-08-07T07:31:20;99695.47;;;23.51;56.26
57572;BME280;44459;43.522;24.470;2023-08-07T07:33:45;99693.41;;;23.56;56.81
57572;BME280;44459;43.522;24.470;2023-08-07T07:36:18;99694.72;;;23.80;60.70
57572;BME280;44459;43.522;24.470;2023-08-07T07:38:47;99692.22;;;23.77;55.38
57572;BME280;44459;43.522;24.470;2023-08-07T07:41:14;99694.63;;;23.82;56.16
57572;BME280;44459;43.522;24.470;2023-08-07T07:43:39;99677.44;;;23.84;55.39
57572;BME280;44459;43.522;24.470;2023-08-07T07:46:05;99686.28;;;23.86;54.81
57572;BME280;44459;43.522;24.470;2023-08-07T07:48:30;99682.47;;;23.90;53.54
57572;BME280;44459;43.522;24.470;2023-08-07T07:51:02;99680.47;;;23.94;53.51
57572;BME280;44459;43.522;24.470;2023-08-07T07:53:28;99681.41;;;24.09;54.64
57572;BME280;44459;43.522;24.470;2023-08-07T07:55:54;99684.97;;;24.25;53.68
57572;BME280;44459;43.522;24.470;2023-08-07T07:58:20;99685.31;;;24.34;52.19
57572;BME280;44459;43.522;24.470;2023-08-07T08:00:46;99688.25;;;24.45;51.15
57572;BME280;44459;43.522;24.470;2023-08-07T08:03:11;99687.56;;;24.42;48.17
57572;BME280;44459;43.522;24.470;2023-08-07T08:05:38;99684.47;;;24.48;50.09
57572;BME280;44459;43.522;24.470;2023-08-07T08:08:05;99679.09;;;24.48;48.45
57572;BME280;44459;43.522;24.470;2023-08-07T08:10:32;99684.09;;;24.54;51.59
57572;BME280;44459;43.522;24.470;2023-08-07T08:12:57;99669.84;;;24.52;50.25
57572;BME280;44459;43.522;24.470;2023-08-07T08:15:22;99683.84;;;24.59;50.03
57572;BME280;44459;43.522;24.470;2023-08-07T08:17:48;99671.22;;;24.59;49.89
57572;BME280;44459;43.522;24.470;2023-08-07T08:20:14;99684.69;;;24.75;49.03
57572;BME280;44459;43.522;24.470;2023-08-07T08:22:46;99686.31;;;24.77;48.77
57572;BME280;44459;43.522;24.470;2023-08-07T08:25:12;99686.13;;;24.80;49.66
57572;BME280;44459;43.522;24.470;2023-08-07T08:27:38;99685.00;;;24.84;48.38
57572;BME280;44459;43.522;24.470;2023-08-07T08:30:04;99671.19;;;24.75;48.49
57572;BME280;44459;43.522;24.470;2023-08-07T08:32:29;99680.59;;;24.82;49.72
57572;BME280;44459;43.522;24.470;2023-08-07T08:34:55;99671.13;;;24.90;48.03
57572;BME280;44459;43.522;24.470;2023-08-07T08:37:20;99681.94;;;25.04;49.37
57572;BME280;44459;43.522;24.470;2023-08-07T08:39:46;99671.84;;;25.22;47.79
57572;BME280;44459;43.522;24.470;2023-08-07T08:42:12;99678.31;;;25.20;46.33
57572;BME280;44459;43.522;24.470;2023-08-07T08:44:39;99683.03;;;25.16;47.30
57572;BME280;44459;43.522;24.470;2023-08-07T08:47:06;99681.38;;;25.28;47.67
57572;BME280;44459;43.522;24.470;2023-08-07T08:49:46;99688.72;;;25.40;45.44
57572;BME280;44459;43.522;24.470;2023-08-07T08:52:12;99691.91;;;25.46;46.65
57572;BME280;44459;43.522;24.470;2023-08-07T08:54:38;99685.03;;;25.69;45.86
57572;BME280;44459;43.522;24.470;2023-08-07T08:57:06;99685.13;;;25.82;46.06
57572;BME280;44459;43.522;24.470;2023-08-07T08:59:31;99681.38;;;25.70;44.81
57572;BME280;44459;43.522;24.470;2023-08-07T09:01:58;99681.38;;;25.70;43.16
57572;BME280;44459;43.522;24.470;2023-08-07T09:04:23;99692.19;;;25.42;43.11
57572;BME280;44459;43.522;24.470;2023-08-07T09:06:49;99685.22;;;25.24;43.61
57572;BME280;44459;43.522;24.470;2023-08-07T09:09:16;99683.19;;;25.41;44.17
57572;BME280;44459;43.522;24.470;2023-08-07T09:11:43;99680.84;;;25.51;43.57
57572;BME280;44459;43.522;24.470;2023-08-07T09:14:16;99691.63;;;25.37;42.55
57572;BME280;44459;43.522;24.470;2023-08-07T09:16:43;99673.47;;;25.39;41.70
57572;BME280;44459;43.522;24.470;2023-08-07T09:19:09;99686.13;;;25.52;43.66
57572;BME280;44459;43.522;24.470;2023-08-07T09:21:34;99677.78;;;25.70;44.12
57572;BME280;44459;43.522;24.470;2023-08-07T09:24:00;99685.47;;;25.90;46.92
57572;BME280;44459;43.522;24.470;2023-08-07T09:26:26;99687.28;;;26.03;44.17
57572;BME280;44459;43.522;24.470;2023-08-07T09:28:52;99694.59;;;26.16;41.42
57572;BME280;44459;43.522;24.470;2023-08-07T09:31:19;99690.25;;;26.27;42.33
57572;BME280;44459;43.522;24.470;2023-08-07T09:33:47;99694.38;;;26.33;40.72
57572;BME280;44459;43.522;24.470;2023-08-07T09:36:13;99690.03;;;26.30;42.30
57572;BME280;44459;43.522;24.470;2023-08-07T09:38:38;99679.41;;;26.27;42.61
57572;BME280;44459;43.522;24.470;2023-08-07T09:41:04;99689.09;;;26.17;42.85
57572;BME280;44459;43.522;24.470;2023-08-07T09:43:34;99695.25;;;26.33;43.99
57572;BME280;44459;43.522;24.470;2023-08-07T09:46:04;99696.22;;;26.45;42.51
57572;BME280;44459;43.522;24.470;2023-08-07T09:48:30;99701.78;;;26.56;42.55
57572;BME280;44459;43.522;24.470;2023-08-07T09:51:00;99698.63;;;26.37;41.65
57572;BME280;44459;43.522;24.470;2023-08-07T09:53:26;99689.56;;;26.50;44.02
57572;BME280;44459;43.522;24.470;2023-08-07T09:55:53;99701.47;;;26.48;41.37
57572;BME280;44459;43.522;24.470;2023-08-07T09:58:19;99692.88;;;26.41;42.03
57572;BME280;44459;43.522;24.470;2023-08-07T10:00:46;99695.69;;;26.40;41.93
57572;BME280;44459;43.522;24.470;2023-08-07T10:03:13;99691.09;;;26.14;39.62
57572;BME280;44459;43.522;24.470;2023-08-07T10:05:38;99690.16;;;26.41;39.17
57572;BME280;44459;43.522;24.470;2023-08-07T10:08:04;99686.63;;;26.41;39.43
57572;BME280;44459;43.522;24.470;2023-08-07T10:10:32;99705.84;;;26.36;37.96
57572;BME280;44459;43.522;24.470;2023-08-07T10:13:00;99683.78;;;26.42;39.33
57572;BME280;44459;43.522;24.470;2023-08-07T10:15:26;99685.97;;;26.50;37.59
57572;BME280;44459;43.522;24.470;2023-08-07T10:17:52;99685.31;;;26.46;38.86
57572;BME280;44459;43.522;24.470;2023-08-07T10:20:17;99680.13;;;26.43;39.64
57572;BME280;44459;43.522;24.470;2023-08-07T10:22:44;99689.34;;;26.53;38.94
57572;BME280;44459;43.522;24.470;2023-08-07T10:25:10;99692.50;;;26.60;40.80
57572;BME280;44459;43.522;24.470;2023-08-07T10:27:38;99675.06;;;26.51;40.45
57572;BME280;44459;43.522;24.470;2023-08-07T10:30:08;99678.66;;;26.65;40.21
57572;BME280;44459;43.522;24.470;2023-08-07T10:32:35;99687.75;;;26.76;40.42
57572;BME280;44459;43.522;24.470;2023-08-07T10:35:04;99674.78;;;26.81;40.53
57572;BME280;44459;43.522;24.470;2023-08-07T10:37:44;99671.56;;;26.89;40.30
57572;BME280;44459;43.522;24.470;2023-08-07T10:40:12;99671.88;;;26.97;39.09
57572;BME280;44459;43.522;24.470;2023-08-07T10:45:19;99680.00;;;26.97;38.98
57572;BME280;44459;43.522;24.470;2023-08-07T10:48:12;99669.28;;;26.95;38.60
57572;BME280;44459;43.522;24.470;2023-08-07T10:50:56;99673.09;;;27.06;40.73
57572;BME280;44459;43.522;24.470;2023-08-07T10:53:44;99671.13;;;27.08;38.93
57572;BME280;44459;43.522;24.470;2023-08-07T10:56:31;99676.78;;;27.30;39.89
57572;BME280;44459;43.522;24.470;2023-08-07T10:58:57;99684.16;;;27.28;36.42
57572;BME280;44459;43.522;24.470;2023-08-07T11:04:05;99668.63;;;27.30;37.53
57572;BME280;44459;43.522;24.470;2023-08-07T11:06:33;99673.84;;;27.33;38.83
57572;BME280;44459;43.522;24.470;2023-08-07T11:09:00;99674.59;;;27.22;37.47
57572;BME280;44459;43.522;24.470;2023-08-07T11:11:43;99672.09;;;27.32;38.05
57572;BME280;44459;43.522;24.470;2023-08-07T11:14:12;99665.47;;;27.36;37.68
57572;BME280;44459;43.522;24.470;2023-08-07T11:16:38;99666.38;;;27.49;37.87
57572;BME280;44459;43.522;24.470;2023-08-07T11:19:04;99676.13;;;27.52;36.65
57572;BME280;44459;43.522;24.470;2023-08-07T11:21:33;99665.72;;;27.58;37.67
57572;BME280;44459;43.522;24.470;2023-08-07T11:23:59;99671.81;;;27.49;38.27
57572;BME280;44459;43.522;24.470;2023-08-07T11:26:25;99669.16;;;27.60;37.01
57572;BME280;44459;43.522;24.470;2023-08-07T11:28:53;99672.66;;;27.62;36.78
57572;BME280;44459;43.522;24.470;2023-08-07T11:31:18;99666.78;;;27.43;36.65
57572;BME280;44459;43.522;24.470;2023-08-07T11:33:44;99659.72;;;27.53;38.67
57572;BME280;44459;43.522;24.470;2023-08-07T11:36:13;99664.19;;;27.54;38.19
57572;BME280;44459;43.522;24.470;2023-08-07T11:38:41;99669.94;;;27.49;36.69
57572;BME280;44459;43.522;24.470;2023-08-07T11:41:10;99658.88;;;27.52;36.44
57572;BME280;44459;43.522;24.470;2023-08-07T11:43:37;99666.56;;;27.59;37.92
57572;BME280;44459;43.522;24.470;2023-08-07T11:46:05;99661.09;;;27.71;36.85
57572;BME280;44459;43.522;24.470;2023-08-07T11:48:32;99666.88;;;27.67;36.85
57572;BME280;44459;43.522;24.470;2023-08-07T11:50:58;99660.88;;;27.74;36.94
57572;BME280;44459;43.522;24.470;2023-08-07T11:53:26;99648.97;;;27.64;37.91
57572;BME280;44459;43.522;24.470;2023-08-07T11:55:52;99656.22;;;27.76;37.58
57572;BME280;44459;43.522;24.470;2023-08-07T11:58:20;99659.59;;;27.67;37.60
57572;BME280;44459;43.522;24.470;2023-08-07T12:00:46;99657.19;;;27.75;39.37
57572;BME280;44459;43.522;24.470;2023-08-07T12:03:31;99651.03;;;27.73;37.56
57572;BME280;44459;43.522;24.470;2023-08-07T12:05:58;99660.00;;;27.86;37.02
57572;BME280;44459;43.522;24.470;2023-08-07T12:08:25;99654.09;;;27.92;38.63
57572;BME280;44459;43.522;24.470;2023-08-07T12:10:56;99668.22;;;27.97;35.93
57572;BME280;44459;43.522;24.470;2023-08-07T12:13:25;99648.44;;;27.95;39.33
57572;BME280;44459;43.522;24.470;2023-08-07T12:15:55;99653.97;;;28.07;37.21
57572;BME280;44459;43.522;24.470;2023-08-07T12:18:21;99647.34;;;28.11;36.02
57572;BME280;44459;43.522;24.470;2023-08-07T12:20:49;99643.41;;;28.15;35.97
57572;BME280;44459;43.522;24.470;2023-08-07T12:23:16;99645.41;;;28.00;36.30
57572;BME280;44459;43.522;24.470;2023-08-07T12:25:42;99637.59;;;27.95;35.93
57572;BME280;44459;43.522;24.470;2023-08-07T12:28:08;99646.06;;;27.91;35.80
57572;BME280;44459;43.522;24.470;2023-08-07T12:30:34;99628.47;;;27.96;36.99
57572;BME280;44459;43.522;24.470;2023-08-07T12:33:00;99633.00;;;28.09;35.61
57572;BME280;44459;43.522;24.470;2023-08-07T12:35:26;99634.16;;;28.17;35.78
57572;BME280;44459;43.522;24.470;2023-08-07T12:37:51;99633.28;;;28.17;36.00
57572;BME280;44459;43.522;24.470;2023-08-07T12:40:16;99628.41;;;28.33;37.07
57572;BME280;44459;43.522;24.470;2023-08-07T12:42:46;99626.97;;;28.40;36.65
57572;BME280;44459;43.522;24.470;2023-08-07T12:45:11;99626.28;;;28.49;36.19
57572;BME280;44459;43.522;24.470;2023-08-07T12:47:36;99621.00;;;28.59;35.75
57572;BME280;44459;43.522;24.470;2023-08-07T12:50:02;99631.22;;;28.90;35.75
57572;BME280;44459;43.522;24.470;2023-08-07T12:52:28;99626.53;;;29.03;36.90